METAR AND TAF INFORMATION
METAR FOR USTR
ADDS - METARS form results

(0642 UTC 21 November 2019)
Data provider http://aviationweather.gov/metar/data/
 
METAR text: USTR 210630Z 25006MPS CAVOK M17/M20 Q1034 R30/CLRD65 R03/CLRD65 NOSIG RMK QFE765/1021
Conditions at: USTR (ROSCHINO , RU) observed 0630 UTC 21 November 2019
Temperature: -17.0°C ( 1°F)
Dewpoint: -20.0°C (-4°F) [RH = 77%]
Pressure (altimeter): 30.53 inches Hg (1034.0 mb)
Winds: from the WSW (250 degrees) at 14 MPH (12 knots; 6.2 m/s)
Visibility: 6 or more miles (10+ km)
Ceiling: ceiling and visibility are OK
Clouds: unknown
Weather: no significant weather observed at this time

METAR text: USTR 210600Z 25005MPS CAVOK M17/M21 Q1034 R30/CLRD65 R03/CLRD65 NOSIG RMK QFE766/1021
Conditions at: USTR (ROSCHINO , RU) observed 0600 UTC 21 November 2019
Temperature: -17.0°C ( 1°F)
Dewpoint: -21.0°C (-6°F) [RH = 71%]
Pressure (altimeter): 30.53 inches Hg (1034.0 mb)
Winds: from the WSW (250 degrees) at 12 MPH (10 knots; 5.1 m/s)
Visibility: 6 or more miles (10+ km)
Ceiling: ceiling and visibility are OK
Clouds: unknown
Weather: no significant weather observed at this time

Forecast for: USTR (ROSCHINO , RU)
Text: TAF USTR 210455Z 2106/2206 25005G10MPS 9999 DRSN SCT030
Forecast period: 0600 to 0800 UTC 21 November 2019
Forecast type: FROM: standard forecast or significant change
Winds: from the WSW (250 degrees) at 12 MPH (10 knots; 5.1 m/s)
gusting to 22 MPH (19 knots; 9.8 m/s)
Visibility: 6 or more miles 10+ km)
Ceiling: at least 12,000 feet AGL
Clouds: scattered clouds at 3000 feet AGL
Weather: DRSN  (low drifting snow)
Text: BECMG 2108/2109 29007MPS
Forecast period: 0800 to 2200 UTC 21 November 2019
Forecast type: BECOMING: Conditions expected to become as follows by 0900 UTC 21 November 2019
Winds: from the WNW (290 degrees) at 16 MPH (14 knots; 7.2 m/s)
Visibility: 6 or more miles 10+ km)
Ceiling: at least 12,000 feet AGL
Clouds: scattered clouds at 3000 feet AGL
Weather: DRSN  (low drifting snow)
Text: FM212200 25003MPS 4000 -SN BR SCT007 BKN020
Forecast period: 2200 UTC 21 November 2019 to 0600 UTC 22 November 2019
Forecast type: FROM: standard forecast or significant change
Winds: from the WSW (250 degrees) at 7 MPH (6 knots; 3.1 m/s)
Visibility: 2.49 miles (4.01 km)
Ceiling: 2000 feet AGL
Clouds: scattered clouds at 700 feet AGL
broken clouds at 2000 feet AGL
Weather: -SN BR  (light snow, mist)

 AIRPORT MAP

 RUNWAY INFORMATION

 AIRPORT FREQUENCIES
Type APP Name TYUMEN APP Frequency 126.1 MHZ
Type ATIS Name TYUMEN ATI Frequency 121.7 MHZ
Type GND Name TYUMEN TAX Frequency 119 MHZ
Type RDR Name TYUMEN KRU Frequency 120.4 MHZ
Type TWR Name TYUMEN STA Frequency 118.2 MHZ

 AIRPORT NEAR NAVIGATION AIDS
Type NDB Name Tyumen Frequency 315 KHZ
Type NDB Name Tyumen Frequency 315 KHZ
Type NDB Name Tyumen Frequency 290 KHZ



2018 Air Astana Virtual Airline